Terminal Aerodrome Forecast
Issued by NWS

Current Version | Previous Version | Text Only | Print | Product List | Glossary On
Versions: 1 2 3 4 5 6 7 8 9 10 11 12 13 14 15 16 17 18 19 20 21 22 23 24 25 26 27 28 29 30 31 32
000
FTUS42 KFFC 220135 AAA
TAFFTY
TAF AMD
KFTY 220135Z 2202/2224 08006KT P6SM SCT018 OVC025
      TEMPO 2202/2204 BKN018 OVC025
     FM220400 09005KT 6SM BR OVC014
     FM220700 08004KT 5SM -DZ BR OVC007
     FM220900 09005KT 2SM -DZ BR OVC004
     FM221600 09007KT 5SM -DZ BR OVC007=

USA.gov is the U.S. government's official web portal to all federal, state and local government web resources and services.